CDT,Max TemperatureF,Mean TemperatureF,Min TemperatureF,Max Dew PointF,MeanDew PointF,Min DewpointF,Max Humidity, Mean Humidity, Min Humidity, Max Sea Level PressureIn, Mean Sea Level PressureIn, Min Sea Level PressureIn, Max VisibilityMiles, Mean VisibilityMiles, Min VisibilityMiles, Max Wind SpeedMPH, Mean Wind SpeedMPH, Max Gust SpeedMPH,PrecipitationIn, CloudCover, Events, WindDirDegrees
2013-9-1,86,74,62,68,62,54,94,71,36,29.85,29.78,29.72,10,9,4,16,4,23,0.00,3,Rain,282
2013-9-2,69,60,52,60,53,49,89,71,48,30.03,29.97,29.86,10,10,4,12,6,17,0.00,5,Rain,325
2013-9-3,79,61,43,52,47,42,95,63,28,30.10,30.04,29.99,10,10,2,13,3,16,0.00,0,,262
2013-9-4,85,68,51,64,57,48,93,70,39,30.18,30.08,30.01,10,10,7,8,2,,0.00,1,,360
2013-9-5,76,64,53,60,50,45,93,62,35,30.32,30.26,30.18,10,10,7,9,4,,0.00,2,,94
2013-9-6,90,69,48,63,56,47,94,65,34,30.24,30.10,29.95,10,10,10,12,2,17,0.00,1,,186
2013-9-7,90,79,67,74,65,62,91,71,42,30.07,29.94,29.89,10,10,3,14,2,25,0.32,3,Rain,106
2013-9-8,76,67,58,62,57,54,88,71,47,30.13,30.07,29.99,10,10,10,14,6,18,0.20,3,,79
2013-9-9,90,77,64,73,66,58,88,71,55,29.99,29.84,29.72,10,10,7,13,3,17,0.00,4,,170
2013-9-10,94,82,71,69,64,61,92,53,34,29.97,29.87,29.76,10,10,5,17,9,24,0.17,2,Rain,247
2013-9-11,86,75,63,68,62,52,93,68,31,30.04,29.99,29.95,10,10,7,13,4,21,0.01,2,Rain,249
2013-9-12,74,63,51,59,51,42,93,66,36,30.19,30.06,29.98,10,10,2,18,5,25,0.01,3,,343
2013-9-13,66,54,43,46,41,33,93,65,32,30.26,30.20,30.15,10,10,10,9,2,16,0.00,0,,17
2013-9-14,74,57,40,50,43,38,93,63,28,30.17,30.08,29.98,10,10,10,13,3,18,0.00,0,,198
2013-9-15,66,58,50,57,53,42,94,83,65,30.31,30.09,29.98,10,10,3,14,3,17,0.41,8,Rain,37
2013-9-16,64,52,39,45,41,37,93,70,41,30.44,30.38,30.32,10,10,10,8,4,,0.00,0,,43
2013-9-17,70,54,37,55,47,36,95,78,47,30.37,30.26,30.10,10,10,5,13,3,16,0.00,2,Rain,142
2013-9-18,81,70,58,66,61,55,93,81,56,30.10,29.95,29.86,10,8,2,13,6,16,0.18,5,Rain,156
2013-9-19,84,74,64,71,67,63,94,83,60,29.87,29.80,29.71,10,7,1,14,5,21,0.03,4,Rain,175
2013-9-20,71,65,58,67,60,50,94,80,53,29.83,29.76,29.71,10,9,4,15,7,21,0.00,7,Rain,265
2013-9-21,61,53,43,50,45,41,89,71,50,29.99,29.90,29.83,10,10,10,15,5,22,0.00,3,,302
2013-9-22,62,49,36,44,40,35,94,72,41,30.11,30.06,30.00,10,10,10,8,2,,0.00,0,,82
2013-9-23,67,52,37,49,44,36,95,75,46,30.15,30.10,30.06,10,10,7,14,3,,0.00,0,,119
2013-9-24,72,56,41,55,47,40,95,75,43,30.09,30.04,29.99,10,7,0,12,2,,0.00,1,Fog,114
2013-9-25,70,56,42,56,48,41,95,82,47,30.05,30.02,29.98,10,5,0,7,2,,0.00,2,Fog,67
2013-9-26,77,60,43,61,49,42,95,77,40,30.10,30.07,30.02,10,6,0,13,2,16,0.00,3,Fog,122
2013-9-27,81,63,45,56,49,43,95,66,27,30.15,30.10,30.03,10,8,1,13,3,18,0.00,0,,146
2013-9-28,81,68,54,66,54,48,92,70,41,30.05,29.93,29.79,10,10,4,21,7,33,0.03,3,Rain,181
2013-9-29,71,57,43,51,46,42,95,71,34,30.06,30.00,29.95,10,9,0,12,3,18,0.00,0,Fog,217
2013-9-30,73,58,43,48,44,40,94,67,29,29.98,29.89,29.79,10,10,7,18,3,23,0.00,0,,180